KAFF/AFF METAR and TAF weather

Enter ICAO airport designator
Station Type Date Time Source
KAFF METAR 2019/12/05 21:58 UTC NOAA

KAFF 052158Z 03013KT 10SM FEW011 SCT070 OVC180 03/00 A3000 RMK AO2A SLP172 T00321003


Station Type Date Time Source
KAFF Decoded METAR 2019/12/05 21:58 UTC NOAA

Air Force Academy, CO, United States (KAFF) 38-58N 104-49W 1999M
Dec 05, 2019 - 04:58 PM EST / 2019.12.05 2158 UTC
Wind: from the NNE (030 degrees) at 15 MPH (13 KT):0
Visibility: 10 mile(s):0
Sky conditions: overcast
Temperature: 37.8 F (3.2 C)
Dew Point: 31.5 F (-0.3 C)
Relative Humidity: 77%
Pressure (altimeter): 30 in. Hg (1015 hPa)
ob: KAFF 052158Z 03013KT 10SM FEW011 SCT070 OVC180 03/00 A3000 RMK AO2A SLP172 T00321003
cycle: 22

Station Type Date Time Source
KAFF TAF 2019/12/05 12:24 UTC NOAA

TAF TAF COR KAFF 051521Z 0512/0618 35009KT 9999 VCSH SCT050 BKN080 BKN120 640808 510009 QNH2980INS
BECMG 0515/0516 36012G20KT 9000 -RA BR SCT015 BKN030 OVC060 650309 520009 QNH2987INS
BECMG 0518/0519 01015G25KT 8000 -RASN BR SCT010 BKN015 OVC025 650159 520009 QNH2994INS
BECMG 0520/0521 36012G22KT 6000 -SN BR BKN010 OVC020 650109 510009 QNH3001INS
BECMG 0600/0601 34012KT 9999 NSW SCT015 BKN030 BKN060 620305 QNH3010INS
BECMG 0609/0610 15007KT 4800 BR OVC001 620011 QNH3025INS
BECMG 0616/0617 17009KT 9999 NSW SCT250 QNH3028INS TX06/0518Z TNM07/0612Z LAST NO
AMDS AFT 0515 NEXT 0612

Example: see airport list